createdAt,value
2023-04-15T00:00:49.089Z,6.84
2023-04-15T00:03:57.274Z,6.71
2023-04-15T00:06:59.135Z,6.68
2023-04-15T00:10:02.354Z,6.62
2023-04-15T00:13:06.781Z,6.69
2023-04-15T00:16:11.585Z,6.33
2023-04-15T00:19:25.510Z,6.31
2023-04-15T00:22:29.974Z,6.34
2023-04-15T00:25:31.663Z,6.42
2023-04-15T00:28:35.967Z,6.44
2023-04-15T00:31:38.414Z,6.63
2023-04-15T00:34:39.963Z,6.83
2023-04-15T00:37:48.561Z,7.13
2023-04-15T00:40:50.243Z,7.41
2023-04-15T00:43:52.162Z,7.14
2023-04-15T00:46:54.081Z,6.54
2023-04-15T00:49:56.004Z,6.46
2023-04-15T00:52:58.256Z,6.66
2023-04-15T00:55:59.899Z,6.60
2023-04-15T00:59:09.265Z,6.57
2023-04-15T01:02:11.231Z,6.37
2023-04-15T01:05:14.989Z,5.98
2023-04-15T01:08:31.526Z,5.66
2023-04-15T01:11:36.373Z,5.80
2023-04-15T01:14:41.369Z,5.69
2023-04-15T01:17:43.667Z,5.64
2023-04-15T01:20:48.343Z,5.46
2023-04-15T01:23:52.780Z,5.44
2023-04-15T01:27:23.464Z,5.48
2023-04-15T01:30:27.165Z,5.30
2023-04-15T01:33:39.702Z,5.27
2023-04-15T01:36:43.677Z,5.15
2023-04-15T01:39:45.494Z,5.10
2023-04-15T01:42:47.284Z,5.13
2023-04-15T01:45:50.584Z,5.07
2023-04-15T01:48:52.777Z,5.29
2023-04-15T01:51:57.336Z,5.00
2023-04-15T01:54:58.949Z,5.16
2023-04-15T01:58:01.293Z,5.56
2023-04-15T02:01:04.681Z,6.09
2023-04-15T02:04:07.333Z,6.19
2023-04-15T02:07:08.881Z,6.15
2023-04-15T02:10:19.781Z,5.95
2023-04-15T02:13:29.119Z,5.77
2023-04-15T02:16:38.085Z,5.93
2023-04-15T02:19:40.575Z,6.09
2023-04-15T02:22:48.741Z,6.14
2023-04-15T02:25:53.296Z,5.96
2023-04-15T02:28:56.268Z,5.74
2023-04-15T02:32:00.797Z,5.59
2023-04-15T02:35:04.044Z,5.45
2023-04-15T02:38:06.466Z,5.54
2023-04-15T02:41:09.442Z,5.49
2023-04-15T02:44:13.094Z,5.47
2023-04-15T02:47:15.976Z,5.52
2023-04-15T02:50:18.005Z,5.84
2023-04-15T02:53:20.105Z,6.24
2023-04-15T02:59:41.648Z,5.91
2023-04-15T03:02:50.861Z,5.75
2023-04-15T03:05:52.654Z,5.70
2023-04-15T03:12:19.233Z,5.73
2023-04-15T03:15:21.554Z,5.71
2023-04-15T03:18:26.569Z,5.66
2023-04-15T03:21:31.486Z,5.61
2023-04-15T03:24:39.200Z,5.36
2023-04-15T03:27:41.641Z,5.40
2023-04-15T03:30:59.984Z,5.43
2023-04-15T03:34:02.538Z,5.45
2023-04-15T03:40:21.684Z,5.33
2023-04-15T03:43:26.448Z,5.33
2023-04-15T03:46:28.112Z,5.31
2023-04-15T03:49:38.187Z,5.35
2023-04-15T03:52:42.056Z,5.39
2023-04-15T03:55:54.248Z,5.38
2023-04-15T03:58:55.935Z,5.36
2023-04-15T04:01:57.645Z,5.31
2023-04-15T04:04:59.204Z,5.39
2023-04-15T04:08:00.704Z,5.43
2023-04-15T04:11:04.594Z,5.29
2023-04-15T04:14:08.202Z,5.27
2023-04-15T04:17:09.737Z,5.26
2023-04-15T04:20:17.313Z,5.27
2023-04-15T04:23:21.701Z,5.33
2023-04-15T04:29:49.911Z,5.17
2023-04-15T04:32:57.548Z,5.21
2023-04-15T04:35:59.087Z,5.26
2023-04-15T04:39:01.508Z,5.34
2023-04-15T04:42:04.546Z,5.42
2023-04-15T04:45:09.437Z,5.48
2023-04-15T04:48:11.523Z,5.51
2023-04-15T04:51:13.096Z,5.57
2023-04-15T04:54:16.195Z,5.57
2023-04-15T04:57:17.745Z,5.63
2023-04-15T05:00:19.351Z,5.73
2023-04-15T05:03:22.132Z,5.77
2023-04-15T05:09:42.433Z,5.84
2023-04-15T05:12:45.649Z,5.90
2023-04-15T05:15:47.339Z,6.00
2023-04-15T05:18:50.953Z,6.05
2023-04-15T05:21:55.574Z,6.05
2023-04-15T05:24:57.096Z,6.06
2023-04-15T05:27:58.665Z,6.02
2023-04-15T05:31:00.718Z,6.11
2023-04-15T05:34:02.331Z,6.09
2023-04-15T05:37:04.622Z,6.19
2023-04-15T05:40:06.643Z,6.27
2023-04-15T05:43:09.791Z,6.34
2023-04-15T05:46:11.425Z,6.35
2023-04-15T05:49:14.747Z,6.46
2023-04-15T05:52:22.083Z,6.44
2023-04-15T05:55:23.700Z,6.51
2023-04-15T05:58:25.280Z,6.50
2023-04-15T06:01:35.803Z,6.58
2023-04-15T06:04:56.268Z,6.58
2023-04-15T06:07:57.799Z,6.59
2023-04-15T06:11:01.640Z,6.66
2023-04-15T06:14:03.291Z,6.67
2023-04-15T06:20:20.408Z,6.76
2023-04-15T06:23:22.042Z,6.78
2023-04-15T06:26:23.664Z,6.88
2023-04-15T06:29:25.346Z,6.92
2023-04-15T06:32:27.022Z,7.04
2023-04-15T06:35:28.727Z,7.20
2023-04-15T06:38:33.833Z,7.34
2023-04-15T06:41:36.344Z,7.34
2023-04-15T06:45:04.373Z,7.33
2023-04-15T06:48:07.080Z,7.34
2023-04-15T06:51:08.657Z,7.43
2023-04-15T06:54:10.261Z,7.39
2023-04-15T06:57:11.860Z,7.45
2023-04-15T07:00:13.905Z,7.28
2023-04-15T07:03:15.717Z,7.39
2023-04-15T07:06:17.263Z,7.44
2023-04-15T07:09:18.769Z,7.44
2023-04-15T07:12:20.844Z,7.60
2023-04-15T07:15:23.563Z,7.71
2023-04-15T07:18:25.605Z,7.79
2023-04-15T07:24:50.245Z,8.07
2023-04-15T07:28:02.471Z,8.08
2023-04-15T07:31:08.063Z,8.40
2023-04-15T07:34:12.125Z,8.61
2023-04-15T07:37:13.987Z,8.64
2023-04-15T07:40:18.632Z,9.08
2023-04-15T07:43:21.307Z,9.49
2023-04-15T07:46:31.403Z,10.07
2023-04-15T07:49:32.953Z,10.27
2023-04-15T07:52:39.118Z,10.73
2023-04-15T07:58:56.164Z,11.36
2023-04-15T08:02:01.030Z,11.18
2023-04-15T08:05:04.383Z,11.66
2023-04-15T08:08:08.451Z,11.71
2023-04-15T08:11:12.137Z,11.80
2023-04-15T08:14:16.068Z,12.00
2023-04-15T08:17:17.763Z,12.49
2023-04-15T08:20:19.887Z,12.67
2023-04-15T08:23:21.488Z,12.80
2023-04-15T08:26:23.154Z,13.09
2023-04-15T08:29:24.705Z,12.67
2023-04-15T08:32:27.207Z,12.55
2023-04-15T08:35:31.977Z,12.37
2023-04-15T08:38:34.297Z,12.62
2023-04-15T08:42:11.962Z,12.91
2023-04-15T08:45:13.989Z,12.94
2023-04-15T08:48:22.793Z,13.01
2023-04-15T08:51:27.227Z,12.33
2023-04-15T08:54:29.268Z,12.60
2023-04-15T08:57:32.181Z,12.77
2023-04-15T09:00:37.678Z,12.65
2023-04-15T09:03:40.808Z,12.88
2023-04-15T09:06:44.994Z,13.02
2023-04-15T09:09:48.646Z,13.20
2023-04-15T09:12:50.321Z,12.95
2023-04-15T09:15:53.609Z,13.27
2023-04-15T09:19:27.748Z,13.58
2023-04-15T09:22:33.308Z,13.58
2023-04-15T09:25:50.565Z,13.36
2023-04-15T09:28:54.368Z,13.34
2023-04-15T09:31:56.204Z,13.29
2023-04-15T09:34:58.062Z,13.60
2023-04-15T09:38:12.833Z,13.95
2023-04-15T09:41:20.733Z,14.20
2023-04-15T09:44:27.122Z,14.16
2023-04-15T09:47:34.817Z,14.23
2023-04-15T09:50:41.236Z,14.95
2023-04-15T09:53:42.787Z,15.02
2023-04-15T09:56:50.380Z,14.85
2023-04-15T09:59:52.074Z,14.54
2023-04-15T10:03:19.093Z,14.56
2023-04-15T10:06:23.632Z,14.93
2023-04-15T10:09:25.167Z,15.39
2023-04-15T10:12:27.668Z,15.13
2023-04-15T10:15:34.034Z,15.28
2023-04-15T10:18:42.988Z,15.28
2023-04-15T10:21:50.253Z,15.20
2023-04-15T10:24:52.989Z,15.27
2023-04-15T10:27:56.496Z,15.32
2023-04-15T10:30:59.302Z,14.73
2023-04-15T10:34:13.724Z,15.08
2023-04-15T10:37:21.742Z,15.17
2023-04-15T10:40:37.748Z,15.34
2023-04-15T10:43:41.673Z,15.53
2023-04-15T10:46:45.370Z,15.36
2023-04-15T10:53:28.324Z,15.38
2023-04-15T10:56:39.492Z,15.74
2023-04-15T11:03:43.351Z,16.02
2023-04-15T11:06:45.791Z,16.66
2023-04-15T11:09:48.079Z,16.87
2023-04-15T11:13:11.505Z,16.67
2023-04-15T11:16:13.573Z,16.09
2023-04-15T11:22:30.708Z,17.16
2023-04-15T11:25:37.665Z,17.01
2023-04-15T11:28:41.839Z,17.12
2023-04-15T11:32:00.765Z,16.93
2023-04-15T11:35:02.368Z,16.96
2023-04-15T11:38:12.369Z,17.39
2023-04-15T11:41:13.930Z,17.46
2023-04-15T11:44:19.144Z,17.15
2023-04-15T11:47:30.638Z,17.86
2023-04-15T11:50:42.446Z,17.45
2023-04-15T11:53:57.813Z,17.54
2023-04-15T11:57:00.153Z,17.60
2023-04-15T12:00:01.870Z,17.65
2023-04-15T12:03:23.721Z,17.39
2023-04-15T12:06:27.868Z,17.17
2023-04-15T12:09:36.737Z,17.39
2023-04-15T12:12:41.038Z,17.76
2023-04-15T12:15:43.698Z,17.36
2023-04-15T12:18:56.121Z,17.40
2023-04-15T12:22:10.356Z,17.73
2023-04-15T12:25:12.246Z,17.80
2023-04-15T12:28:20.878Z,17.66
2023-04-15T12:31:23.832Z,18.10
2023-04-15T12:34:51.064Z,17.87
2023-04-15T12:38:18.047Z,16.88
2023-04-15T12:41:20.661Z,16.81
2023-04-15T12:44:34.465Z,17.46
2023-04-15T12:47:39.113Z,17.96
2023-04-15T12:50:44.250Z,17.93
2023-04-15T12:53:45.788Z,17.29
2023-04-15T12:56:48.965Z,17.47
2023-04-15T12:59:53.532Z,17.73
2023-04-15T13:02:55.123Z,17.97
2023-04-15T13:06:08.738Z,17.60
2023-04-15T13:09:10.813Z,17.81
2023-04-15T13:15:32.060Z,17.87
2023-04-15T13:22:08.799Z,17.45
2023-04-15T13:25:32.452Z,18.00
2023-04-15T13:28:34.566Z,18.10
2023-04-15T13:31:49.300Z,17.65
2023-04-15T13:35:16.310Z,16.93
2023-04-15T13:38:17.869Z,17.21
2023-04-15T13:41:21.135Z,16.94
2023-04-15T13:44:28.637Z,17.46
2023-04-15T13:47:32.707Z,17.61
2023-04-15T13:50:34.472Z,17.78
2023-04-15T13:53:51.567Z,17.62
2023-04-15T13:56:54.634Z,17.98
2023-04-15T13:59:56.345Z,17.41
2023-04-15T14:03:00.990Z,17.78
2023-04-15T14:06:02.690Z,17.13
2023-04-15T14:09:06.560Z,17.03
2023-04-15T14:12:15.473Z,17.64
2023-04-15T14:15:21.100Z,17.95
2023-04-15T14:18:26.584Z,17.84
2023-04-15T14:21:28.835Z,17.34
2023-04-15T14:24:30.431Z,17.04
2023-04-15T14:27:46.495Z,16.62
2023-04-15T14:30:48.088Z,16.75
2023-04-15T14:33:51.995Z,16.17
2023-04-15T14:36:56.454Z,16.12
2023-04-15T14:40:00.316Z,15.94
2023-04-15T14:43:07.956Z,15.78
2023-04-15T14:46:14.435Z,15.84
2023-04-15T14:49:22.880Z,15.93
2023-04-15T14:52:27.353Z,16.06
2023-04-15T14:55:37.931Z,16.36
2023-04-15T14:58:39.458Z,16.32
2023-04-15T15:01:41.189Z,15.76
2023-04-15T15:08:01.480Z,15.39
2023-04-15T15:11:03.114Z,15.49
2023-04-15T15:17:20.262Z,15.58
2023-04-15T15:20:49.810Z,15.53
2023-04-15T15:24:00.699Z,15.60
2023-04-15T15:27:02.950Z,15.41
2023-04-15T15:30:06.492Z,14.96
2023-04-15T15:33:10.668Z,14.95
2023-04-15T15:36:16.150Z,15.23
2023-04-15T15:39:24.949Z,15.17
2023-04-15T15:42:26.847Z,15.22
2023-04-15T15:45:35.994Z,15.11
2023-04-15T15:51:59.060Z,15.32
2023-04-15T15:55:03.904Z,15.25
2023-04-15T15:58:05.663Z,15.11
2023-04-15T16:01:10.467Z,15.02
2023-04-15T16:04:12.194Z,14.89
2023-04-15T16:07:15.420Z,14.97
2023-04-15T16:10:17.545Z,15.04
2023-04-15T16:13:19.124Z,14.75
2023-04-15T16:16:22.073Z,14.72
2023-04-15T16:19:30.792Z,14.67
2023-04-15T16:22:34.241Z,14.39
2023-04-15T16:25:35.770Z,14.50
2023-04-15T16:28:37.398Z,14.37
2023-04-15T16:31:40.035Z,14.21
2023-04-15T16:34:41.617Z,14.13
2023-04-15T16:37:58.285Z,14.02
2023-04-15T16:41:02.068Z,13.91
2023-04-15T16:44:03.760Z,13.77
2023-04-15T16:47:05.880Z,13.80
2023-04-15T16:50:18.340Z,13.89
2023-04-15T16:53:19.953Z,13.85
2023-04-15T16:56:22.139Z,13.63
2023-04-15T16:59:26.167Z,13.42
2023-04-15T17:02:31.344Z,13.38
2023-04-15T17:05:33.825Z,13.21
2023-04-15T17:08:41.304Z,13.12
2023-04-15T17:11:44.512Z,13.19
2023-04-15T17:14:46.168Z,13.02
2023-04-15T17:17:51.796Z,12.92
2023-04-15T17:21:12.265Z,12.83
2023-04-15T17:24:15.778Z,12.79
2023-04-15T17:27:19.696Z,12.79
2023-04-15T17:30:21.716Z,12.71
2023-04-15T17:34:00.534Z,12.67
2023-04-15T17:36:44.901Z,12.61
2023-04-15T17:39:49.281Z,12.51
2023-04-15T17:42:51.746Z,12.43
2023-04-15T17:45:59.545Z,12.35
2023-04-15T17:49:03.503Z,12.18
2023-04-15T17:52:05.385Z,12.20
2023-04-15T17:55:08.171Z,12.21
2023-04-15T17:58:09.865Z,12.07
2023-04-15T18:01:13.671Z,12.01
2023-04-15T18:04:15.812Z,11.78
2023-04-15T18:07:17.695Z,11.64
2023-04-15T18:10:20.668Z,11.59
2023-04-15T18:13:24.710Z,11.52
2023-04-15T18:16:31.936Z,11.40
2023-04-15T18:19:33.766Z,11.28
2023-04-15T18:22:35.619Z,11.22
2023-04-15T18:25:38.326Z,11.13
2023-04-15T18:28:39.960Z,11.03
2023-04-15T18:31:42.083Z,10.99
2023-04-15T18:34:46.472Z,10.90
2023-04-15T18:41:05.479Z,10.75
2023-04-15T18:44:14.578Z,10.63
2023-04-15T18:47:16.145Z,10.62
2023-04-15T18:50:19.972Z,10.28
2023-04-15T18:53:22.640Z,10.39
2023-04-15T18:56:26.399Z,10.23
2023-04-15T18:59:30.195Z,10.16
2023-04-15T19:02:32.888Z,10.04
2023-04-15T19:05:35.155Z,10.03
2023-04-15T19:08:36.700Z,9.93
2023-04-15T19:11:39.057Z,9.97
2023-04-15T19:14:41.353Z,9.89
2023-04-15T19:17:48.847Z,9.94
2023-04-15T19:20:52.203Z,9.86
2023-04-15T19:23:58.718Z,9.68
2023-04-15T19:27:00.201Z,9.58
2023-04-15T19:30:03.335Z,9.46
2023-04-15T19:33:04.997Z,9.37
2023-04-15T19:36:07.554Z,9.42
2023-04-15T19:39:09.821Z,9.37
2023-04-15T19:42:11.354Z,9.37
2023-04-15T19:45:14.910Z,9.23
2023-04-15T19:48:16.875Z,9.20
2023-04-15T19:51:18.514Z,9.20
2023-04-15T19:54:20.113Z,9.14
2023-04-15T19:57:21.606Z,9.00
2023-04-15T20:00:23.230Z,8.97
2023-04-15T20:06:40.564Z,8.79
2023-04-15T20:09:46.361Z,8.82
2023-04-15T20:12:55.131Z,8.83
2023-04-15T20:15:56.928Z,8.68
2023-04-15T20:19:07.399Z,8.73
2023-04-15T20:22:10.842Z,8.70
2023-04-15T20:25:19.131Z,8.70
2023-04-15T20:28:29.307Z,8.61
2023-04-15T20:31:30.904Z,8.68
2023-04-15T20:34:32.684Z,8.66
2023-04-15T20:37:34.754Z,8.64
2023-04-15T20:40:36.505Z,8.63
2023-04-15T20:43:38.050Z,8.66
2023-04-15T20:46:39.606Z,8.66
2023-04-15T20:49:47.491Z,8.65
2023-04-15T20:52:54.253Z,8.61
2023-04-15T20:56:02.099Z,8.61
2023-04-15T21:02:23.660Z,8.59
2023-04-15T21:05:29.030Z,8.56
2023-04-15T21:08:31.560Z,8.60
2023-04-15T21:11:53.142Z,8.50
2023-04-15T21:15:03.711Z,8.50
2023-04-15T21:18:30.561Z,8.55
2023-04-15T21:21:35.488Z,8.42
2023-04-15T21:24:37.953Z,8.37
2023-04-15T21:27:39.596Z,8.39
2023-04-15T21:30:42.985Z,8.43
2023-04-15T21:33:46.362Z,8.51
2023-04-15T21:36:47.992Z,8.49
2023-04-15T21:39:49.684Z,8.39
2023-04-15T21:42:52.611Z,8.47
2023-04-15T21:46:22.385Z,8.48
2023-04-15T21:49:20.285Z,8.48
2023-04-15T21:52:24.390Z,8.47
2023-04-15T21:55:25.966Z,8.48
2023-04-15T21:58:30.447Z,8.48
2023-04-15T22:01:32.013Z,8.39
2023-04-15T22:04:33.546Z,8.41
2023-04-15T22:07:36.466Z,8.28
2023-04-15T22:10:38.945Z,8.34
2023-04-15T22:13:40.915Z,8.38
2023-04-15T22:20:03.761Z,8.33
2023-04-15T22:23:08.386Z,8.32
2023-04-15T22:26:10.103Z,8.43
2023-04-15T22:29:14.851Z,8.39
2023-04-15T22:32:17.094Z,8.27
2023-04-15T22:35:21.665Z,8.39
2023-04-15T22:38:24.761Z,8.41
2023-04-15T22:41:26.411Z,8.44
2023-04-15T22:44:27.938Z,8.41
2023-04-15T22:47:29.521Z,8.43
2023-04-15T22:50:37.945Z,8.33
2023-04-15T22:53:39.542Z,8.33
2023-04-15T22:56:41.053Z,8.36
2023-04-15T22:59:42.605Z,8.41
2023-04-15T23:02:44.189Z,8.31
2023-04-15T23:05:46.147Z,8.37
2023-04-15T23:08:47.881Z,8.48
2023-04-15T23:11:49.547Z,8.48
2023-04-15T23:14:51.144Z,8.33
2023-04-15T23:17:58.435Z,8.30
2023-04-15T23:21:00.048Z,8.27
2023-04-15T23:24:01.626Z,8.31
2023-04-15T23:27:06.301Z,8.28
2023-04-15T23:30:08.268Z,8.26
2023-04-15T23:33:12.822Z,8.40
2023-04-15T23:36:14.383Z,8.28
2023-04-15T23:39:18.279Z,8.27
2023-04-15T23:42:19.812Z,8.25
2023-04-15T23:45:21.374Z,8.23
2023-04-15T23:48:23.716Z,8.22
2023-04-15T23:51:34.239Z,8.22
2023-04-15T23:54:37.213Z,8.26
2023-04-15T23:57:41.499Z,8.30
